sensor_id;sensor_type;location;lat;lon;timestamp;pressure;altitude;pressure_sealevel;temperature;humidity
63343;BME280;49465;57.664;39.686;2023-03-05T00:00:19;97665.34;;;1.82;52.53
63343;BME280;49465;57.664;39.686;2023-03-05T00:02:51;97660.97;;;1.95;52.47
63343;BME280;49465;57.664;39.686;2023-03-05T00:05:27;97667.91;;;2.19;52.46
63343;BME280;49465;57.664;39.686;2023-03-05T00:07:54;97661.00;;;1.83;52.58
63343;BME280;49465;57.664;39.686;2023-03-05T00:10:23;97659.09;;;1.97;52.63
63343;BME280;49465;57.664;39.686;2023-03-05T00:12:53;97652.41;;;1.82;52.35
63343;BME280;49465;57.664;39.686;2023-03-05T00:15:25;97663.53;;;1.95;52.08
63343;BME280;49465;57.664;39.686;2023-03-05T00:17:51;97661.13;;;1.81;52.17
63343;BME280;49465;57.664;39.686;2023-03-05T00:20:21;97649.97;;;1.81;52.32
63343;BME280;49465;57.664;39.686;2023-03-05T00:22:50;97653.19;;;1.95;52.52
63343;BME280;49465;57.664;39.686;2023-03-05T00:25:25;97652.94;;;2.11;52.36
63343;BME280;49465;57.664;39.686;2023-03-05T00:27:51;97654.50;;;1.77;52.36
63343;BME280;49465;57.664;39.686;2023-03-05T00:30:18;97654.50;;;1.77;52.36
63343;BME280;49465;57.664;39.686;2023-03-05T00:32:44;97647.69;;;1.76;52.24
63343;BME280;49465;57.664;39.686;2023-03-05T00:35:13;97651.88;;;1.90;52.29
63343;BME280;49465;57.664;39.686;2023-03-05T00:37:39;97646.75;;;1.77;52.08
63343;BME280;49465;57.664;39.686;2023-03-05T00:40:09;97647.69;;;1.76;52.34
63343;BME280;49465;57.664;39.686;2023-03-05T00:42:44;97645.88;;;1.89;52.64
63343;BME280;49465;57.664;39.686;2023-03-05T00:45:17;97641.72;;;2.00;52.11
63343;BME280;49465;57.664;39.686;2023-03-05T00:47:52;97635.19;;;2.07;52.71
63343;BME280;49465;57.664;39.686;2023-03-05T00:50:18;97635.00;;;1.73;52.08
63343;BME280;49465;57.664;39.686;2023-03-05T00:52:50;97636.50;;;1.88;52.52
63343;BME280;49465;57.664;39.686;2023-03-05T00:55:22;97637.94;;;1.92;52.71
63343;BME280;49465;57.664;39.686;2023-03-05T00:57:54;97630.75;;;1.72;52.20
63343;BME280;49465;57.664;39.686;2023-03-05T01:00:23;97629.22;;;1.69;52.17
63343;BME280;49465;57.664;39.686;2023-03-05T01:02:49;97631.91;;;1.68;52.09
63343;BME280;49465;57.664;39.686;2023-03-05T01:05:19;97638.03;;;1.67;52.49
63343;BME280;49465;57.664;39.686;2023-03-05T01:07:45;97633.06;;;1.64;52.37
63343;BME280;49465;57.664;39.686;2023-03-05T01:10:21;97630.28;;;1.67;52.47
63343;BME280;49465;57.664;39.686;2023-03-05T01:12:52;97629.31;;;1.68;52.19
63343;BME280;49465;57.664;39.686;2023-03-05T01:15:22;97633.88;;;1.64;52.63
63343;BME280;49465;57.664;39.686;2023-03-05T01:17:49;97633.16;;;1.62;52.67
63343;BME280;49465;57.664;39.686;2023-03-05T01:20:17;97641.72;;;1.63;52.49
63343;BME280;49465;57.664;39.686;2023-03-05T01:22:49;97635.00;;;1.73;52.65
63343;BME280;49465;57.664;39.686;2023-03-05T01:25:16;97637.59;;;1.60;52.29
63343;BME280;49465;57.664;39.686;2023-03-05T01:27:52;97635.34;;;1.55;52.35
63343;BME280;49465;57.664;39.686;2023-03-05T01:30:22;97634.41;;;1.56;52.21
63343;BME280;49465;57.664;39.686;2023-03-05T01:32:48;97632.66;;;1.57;52.52
63343;BME280;49465;57.664;39.686;2023-03-05T01:35:21;97641.38;;;1.80;52.98
63343;BME280;49465;57.664;39.686;2023-03-05T01:37:48;97641.25;;;1.57;52.43
63343;BME280;49465;57.664;39.686;2023-03-05T01:40:18;97641.00;;;1.61;52.73
63343;BME280;49465;57.664;39.686;2023-03-05T01:42:54;97640.47;;;1.68;53.07
63343;BME280;49465;57.664;39.686;2023-03-05T01:45:20;97635.78;;;1.49;52.60
63343;BME280;49465;57.664;39.686;2023-03-05T01:47:47;97628.84;;;1.50;52.97
63343;BME280;49465;57.664;39.686;2023-03-05T01:50:17;97634.09;;;1.61;52.85
63343;BME280;49465;57.664;39.686;2023-03-05T01:52:52;97635.81;;;1.73;52.78
63343;BME280;49465;57.664;39.686;2023-03-05T01:55:27;97634.63;;;1.53;52.80
63343;BME280;49465;57.664;39.686;2023-03-05T02:00:36;97636.34;;;1.66;53.14
63343;BME280;49465;57.664;39.686;2023-03-05T02:03:12;97633.59;;;1.56;52.60
63343;BME280;49465;57.664;39.686;2023-03-05T02:05:42;97628.97;;;1.48;52.70
63343;BME280;49465;57.664;39.686;2023-03-05T02:08:12;97632.66;;;1.57;52.79
63343;BME280;49465;57.664;39.686;2023-03-05T02:10:45;97630.19;;;1.55;53.11
63343;BME280;49465;57.664;39.686;2023-03-05T02:13:24;97628.53;;;1.54;52.55
63343;BME280;49465;57.664;39.686;2023-03-05T02:15:58;97630.28;;;1.54;52.99
63343;BME280;49465;57.664;39.686;2023-03-05T02:18:27;97617.81;;;1.48;52.67
63343;BME280;49465;57.664;39.686;2023-03-05T02:23:29;97626.16;;;1.51;53.24
63343;BME280;49465;57.664;39.686;2023-03-05T02:25:58;97622.34;;;1.44;52.92
63343;BME280;49465;57.664;39.686;2023-03-05T02:28:45;97625.38;;;1.75;52.75
63343;BME280;49465;57.664;39.686;2023-03-05T02:31:18;97627.88;;;1.64;52.64
63343;BME280;49465;57.664;39.686;2023-03-05T02:33:45;97627.53;;;1.44;52.87
63343;BME280;49465;57.664;39.686;2023-03-05T02:36:15;97628.47;;;1.43;53.34
63343;BME280;49465;57.664;39.686;2023-03-05T02:38:46;97626.09;;;1.40;53.31
63343;BME280;49465;57.664;39.686;2023-03-05T02:41:18;97626.16;;;1.51;53.47
63343;BME280;49465;57.664;39.686;2023-03-05T02:43:44;97624.41;;;1.39;53.50
63343;BME280;49465;57.664;39.686;2023-03-05T02:46:11;97620.31;;;1.36;53.43
63343;BME280;49465;57.664;39.686;2023-03-05T02:48:40;97623.69;;;1.37;53.52
63343;BME280;49465;57.664;39.686;2023-03-05T02:51:07;97629.72;;;1.37;53.50
63343;BME280;49465;57.664;39.686;2023-03-05T02:53:33;97620.31;;;1.36;53.78
63343;BME280;49465;57.664;39.686;2023-03-05T02:56:05;97622.97;;;1.48;53.97
63343;BME280;49465;57.664;39.686;2023-03-05T02:58:31;97620.31;;;1.36;53.46
63343;BME280;49465;57.664;39.686;2023-03-05T03:00:57;97617.81;;;1.35;53.61
63343;BME280;49465;57.664;39.686;2023-03-05T03:03:24;97617.81;;;1.35;53.61
63343;BME280;49465;57.664;39.686;2023-03-05T03:05:52;97613.38;;;1.37;53.54
63343;BME280;49465;57.664;39.686;2023-03-05T03:08:21;97616.28;;;1.45;53.71
63343;BME280;49465;57.664;39.686;2023-03-05T03:10:51;97618.53;;;1.37;53.72
63343;BME280;49465;57.664;39.686;2023-03-05T03:13:23;97615.84;;;1.38;53.50
63343;BME280;49465;57.664;39.686;2023-03-05T03:15:51;97606.47;;;1.37;53.60
63343;BME280;49465;57.664;39.686;2023-03-05T03:18:29;97616.66;;;1.52;53.48
63343;BME280;49465;57.664;39.686;2023-03-05T03:20:59;97614.94;;;1.40;53.44
63343;BME280;49465;57.664;39.686;2023-03-05T03:23:28;97618.44;;;1.51;53.49
63343;BME280;49465;57.664;39.686;2023-03-05T03:25:55;97607.50;;;1.35;53.40
63343;BME280;49465;57.664;39.686;2023-03-05T03:28:27;97611.41;;;1.53;53.27
63343;BME280;49465;57.664;39.686;2023-03-05T03:30:57;97615.72;;;1.53;53.51
63343;BME280;49465;57.664;39.686;2023-03-05T03:33:23;97608.94;;;1.39;53.52
63343;BME280;49465;57.664;39.686;2023-03-05T03:35:50;97605.53;;;1.38;52.95
63343;BME280;49465;57.664;39.686;2023-03-05T03:38:19;97607.41;;;1.36;53.48
63343;BME280;49465;57.664;39.686;2023-03-05T03:40:45;97602.31;;;1.35;53.29
63343;BME280;49465;57.664;39.686;2023-03-05T03:43:14;97614.91;;;1.52;53.41
63343;BME280;49465;57.664;39.686;2023-03-05T03:45:44;97610.53;;;1.53;53.39
63343;BME280;49465;57.664;39.686;2023-03-05T03:48:19;97608.22;;;1.74;53.13
63343;BME280;49465;57.664;39.686;2023-03-05T03:50:46;97609.97;;;1.36;53.37
63343;BME280;49465;57.664;39.686;2023-03-05T03:53:12;97612.47;;;1.38;53.16
63343;BME280;49465;57.664;39.686;2023-03-05T03:55:40;97608.81;;;1.41;53.39
63343;BME280;49465;57.664;39.686;2023-03-05T03:58:15;97606.56;;;1.36;53.17
63343;BME280;49465;57.664;39.686;2023-03-05T04:00:46;97612.66;;;1.48;53.52
63343;BME280;49465;57.664;39.686;2023-03-05T04:03:13;97611.75;;;1.36;53.18
63343;BME280;49465;57.664;39.686;2023-03-05T04:05:57;97618.09;;;1.80;52.65
63343;BME280;49465;57.664;39.686;2023-03-05T04:08:26;97613.88;;;1.55;53.22
63343;BME280;49465;57.664;39.686;2023-03-05T04:10:53;97615.03;;;1.38;52.98
63343;BME280;49465;57.664;39.686;2023-03-05T04:13:22;97617.56;;;1.51;53.12
63343;BME280;49465;57.664;39.686;2023-03-05T04:15:48;97611.84;;;1.34;53.27
63343;BME280;49465;57.664;39.686;2023-03-05T04:18:18;97617.19;;;1.44;53.25
63343;BME280;49465;57.664;39.686;2023-03-05T04:20:44;97619.47;;;1.36;53.19
63343;BME280;49465;57.664;39.686;2023-03-05T04:23:10;97610.91;;;1.35;53.17
63343;BME280;49465;57.664;39.686;2023-03-05T04:25:40;97618.66;;;1.35;52.78
63343;BME280;49465;57.664;39.686;2023-03-05T04:28:10;97621.34;;;1.34;53.24
63343;BME280;49465;57.664;39.686;2023-03-05T04:30:41;97620.53;;;1.33;52.80
63343;BME280;49465;57.664;39.686;2023-03-05T04:33:08;97620.53;;;1.33;53.17
63343;BME280;49465;57.664;39.686;2023-03-05T04:35:46;97626.69;;;1.44;53.17
63343;BME280;49465;57.664;39.686;2023-03-05T04:38:15;97629.91;;;1.47;52.86
63343;BME280;49465;57.664;39.686;2023-03-05T04:40:44;97623.84;;;1.35;53.13
63343;BME280;49465;57.664;39.686;2023-03-05T04:43:11;97630.00;;;1.33;52.69
63343;BME280;49465;57.664;39.686;2023-03-05T04:45:46;97632.88;;;1.54;53.05
63343;BME280;49465;57.664;39.686;2023-03-05T04:48:12;97630.25;;;1.30;52.97
63343;BME280;49465;57.664;39.686;2023-03-05T04:50:48;97632.66;;;1.57;53.26
63343;BME280;49465;57.664;39.686;2023-03-05T04:53:20;97632.88;;;1.41;53.49
63343;BME280;49465;57.664;39.686;2023-03-05T04:55:54;97632.69;;;1.44;53.31
63343;BME280;49465;57.664;39.686;2023-03-05T04:58:24;97635.09;;;1.22;53.47
63343;BME280;49465;57.664;39.686;2023-03-05T05:01:00;97631.81;;;1.56;53.34
63343;BME280;49465;57.664;39.686;2023-03-05T05:03:27;97640.56;;;1.30;53.01
63343;BME280;49465;57.664;39.686;2023-03-05T05:06:01;97640.47;;;1.31;53.09
63343;BME280;49465;57.664;39.686;2023-03-05T05:08:30;97636.41;;;1.27;53.28
63343;BME280;49465;57.664;39.686;2023-03-05T05:11:11;97635.16;;;1.46;53.15
63343;BME280;49465;57.664;39.686;2023-03-05T05:13:41;97629.63;;;1.26;53.21
63343;BME280;49465;57.664;39.686;2023-03-05T05:16:11;97640.56;;;1.30;53.11
63343;BME280;49465;57.664;39.686;2023-03-05T05:18:37;97627.66;;;1.30;52.99
63343;BME280;49465;57.664;39.686;2023-03-05T05:21:11;97634.63;;;1.53;52.92
63343;BME280;49465;57.664;39.686;2023-03-05T05:23:41;97636.03;;;1.33;52.63
63343;BME280;49465;57.664;39.686;2023-03-05T05:26:09;97644.25;;;1.38;52.99
63343;BME280;49465;57.664;39.686;2023-03-05T05:28:42;97641.56;;;1.27;53.17
63343;BME280;49465;57.664;39.686;2023-03-05T05:31:13;97610.13;;;1.09;53.24
63343;BME280;49465;57.664;39.686;2023-03-05T05:33:40;97642.63;;;1.25;53.40
63343;BME280;49465;57.664;39.686;2023-03-05T05:36:12;97648.81;;;1.35;53.49
63343;BME280;49465;57.664;39.686;2023-03-05T05:38:39;97635.59;;;1.27;53.25
63343;BME280;49465;57.664;39.686;2023-03-05T05:41:13;97641.25;;;1.45;53.26
63343;BME280;49465;57.664;39.686;2023-03-05T05:43:42;97645.16;;;2.00;51.70
63343;BME280;49465;57.664;39.686;2023-03-05T05:46:12;97652.44;;;1.45;53.36
63343;BME280;49465;57.664;39.686;2023-03-05T05:48:50;97651.84;;;1.66;52.88
63343;BME280;49465;57.664;39.686;2023-03-05T05:51:21;97650.25;;;1.39;53.65
63343;BME280;49465;57.664;39.686;2023-03-05T05:53:49;97651.19;;;1.38;53.25
63343;BME280;49465;57.664;39.686;2023-03-05T05:56:15;97647.56;;;1.41;53.14
63343;BME280;49465;57.664;39.686;2023-03-05T05:58:53;97650.34;;;1.50;53.41
63343;BME280;49465;57.664;39.686;2023-03-05T06:01:27;97651.34;;;1.61;53.51
63343;BME280;49465;57.664;39.686;2023-03-05T06:03:59;97648.97;;;1.57;53.39
63343;BME280;49465;57.664;39.686;2023-03-05T06:06:31;97642.47;;;1.52;53.58
63343;BME280;49465;57.664;39.686;2023-03-05T06:09:00;97654.78;;;1.48;53.44
63343;BME280;49465;57.664;39.686;2023-03-05T06:11:29;97648.75;;;1.61;53.49
63343;BME280;49465;57.664;39.686;2023-03-05T06:14:00;97647.50;;;1.66;53.36
63343;BME280;49465;57.664;39.686;2023-03-05T06:16:32;97654.72;;;1.74;53.12
63343;BME280;49465;57.664;39.686;2023-03-05T06:19:04;97651.41;;;1.72;53.68
63343;BME280;49465;57.664;39.686;2023-03-05T06:21:34;97652.28;;;1.60;53.67
63343;BME280;49465;57.664;39.686;2023-03-05T06:24:04;97651.34;;;1.61;53.61
63343;BME280;49465;57.664;39.686;2023-03-05T06:26:38;97665.16;;;1.72;53.79
63343;BME280;49465;57.664;39.686;2023-03-05T06:29:10;97662.16;;;1.78;53.77
63343;BME280;49465;57.664;39.686;2023-03-05T06:31:48;97670.56;;;1.93;53.86
63343;BME280;49465;57.664;39.686;2023-03-05T06:34:18;97666.06;;;1.84;54.22
63343;BME280;49465;57.664;39.686;2023-03-05T06:36:47;97665.06;;;1.74;53.93
63343;BME280;49465;57.664;39.686;2023-03-05T06:39:16;97661.31;;;1.78;53.84
63343;BME280;49465;57.664;39.686;2023-03-05T06:41:51;97668.28;;;2.02;54.17
63343;BME280;49465;57.664;39.686;2023-03-05T06:44:20;97668.94;;;1.92;53.77
63343;BME280;49465;57.664;39.686;2023-03-05T06:46:50;97676.97;;;2.01;54.17
63343;BME280;49465;57.664;39.686;2023-03-05T06:49:21;97671.56;;;2.04;54.23
63343;BME280;49465;57.664;39.686;2023-03-05T06:51:59;97671.53;;;2.16;53.81
63343;BME280;49465;57.664;39.686;2023-03-05T06:54:26;97670.38;;;1.96;53.98
63343;BME280;49465;57.664;39.686;2023-03-05T06:56:55;97678.84;;;1.98;54.72
63343;BME280;49465;57.664;39.686;2023-03-05T06:59:24;97677.16;;;2.10;54.14
63343;BME280;49465;57.664;39.686;2023-03-05T07:02:02;97681.50;;;2.10;54.10
63343;BME280;49465;57.664;39.686;2023-03-05T07:04:40;97677.25;;;2.33;54.16
63343;BME280;49465;57.664;39.686;2023-03-05T07:07:09;97679.66;;;2.23;54.09
63343;BME280;49465;57.664;39.686;2023-03-05T07:09:38;97678.75;;;2.24;54.17
63343;BME280;49465;57.664;39.686;2023-03-05T07:12:09;97677.78;;;2.25;54.12
63343;BME280;49465;57.664;39.686;2023-03-05T07:14:42;97682.66;;;2.30;54.34
63343;BME280;49465;57.664;39.686;2023-03-05T07:17:11;97681.94;;;2.28;54.36
63343;BME280;49465;57.664;39.686;2023-03-05T07:19:40;97676.97;;;2.25;54.28
63343;BME280;49465;57.664;39.686;2023-03-05T07:22:07;97683.91;;;2.24;54.40
63343;BME280;49465;57.664;39.686;2023-03-05T07:24:34;97686.75;;;2.32;54.20
63343;BME280;49465;57.664;39.686;2023-03-05T07:27:06;97686.97;;;2.29;54.67
63343;BME280;49465;57.664;39.686;2023-03-05T07:29:36;97686.81;;;2.44;54.00
63343;BME280;49465;57.664;39.686;2023-03-05T07:32:08;97693.94;;;2.53;53.97
63343;BME280;49465;57.664;39.686;2023-03-05T07:34:40;97693.19;;;2.51;53.99
63343;BME280;49465;57.664;39.686;2023-03-05T07:37:09;97695.56;;;2.54;54.43
63343;BME280;49465;57.664;39.686;2023-03-05T07:39:43;97693.22;;;2.62;54.02
63343;BME280;49465;57.664;39.686;2023-03-05T07:42:12;97690.19;;;2.57;54.30
63343;BME280;49465;57.664;39.686;2023-03-05T07:44:44;97699.16;;;2.75;53.79
63343;BME280;49465;57.664;39.686;2023-03-05T07:47:16;97701.50;;;2.67;54.20
63343;BME280;49465;57.664;39.686;2023-03-05T07:49:42;97705.00;;;2.66;53.89
63343;BME280;49465;57.664;39.686;2023-03-05T07:52:12;97713.81;;;2.64;54.90
63343;BME280;49465;57.664;39.686;2023-03-05T07:54:41;97716.22;;;2.78;54.00
63343;BME280;49465;57.664;39.686;2023-03-05T07:57:14;97713.97;;;2.73;54.12
63343;BME280;49465;57.664;39.686;2023-03-05T07:59:46;97719.31;;;2.83;53.85
63343;BME280;49465;57.664;39.686;2023-03-05T08:02:18;97728.38;;;2.89;54.79
63343;BME280;49465;57.664;39.686;2023-03-05T08:04:50;97727.44;;;2.90;54.12
63343;BME280;49465;57.664;39.686;2023-03-05T08:07:21;97728.28;;;2.90;54.72
63343;BME280;49465;57.664;39.686;2023-03-05T08:09:53;97725.13;;;2.98;53.96
63343;BME280;49465;57.664;39.686;2023-03-05T08:12:22;97729.38;;;3.10;53.85
63343;BME280;49465;57.664;39.686;2023-03-05T08:14:57;97740.56;;;3.11;53.91
63343;BME280;49465;57.664;39.686;2023-03-05T08:17:32;97737.41;;;3.19;54.11
63343;BME280;49465;57.664;39.686;2023-03-05T08:20:01;97734.47;;;3.12;53.92
63343;BME280;49465;57.664;39.686;2023-03-05T08:22:33;97742.13;;;3.25;53.81
63343;BME280;49465;57.664;39.686;2023-03-05T08:25:00;97744.69;;;3.13;54.44
63343;BME280;49465;57.664;39.686;2023-03-05T08:27:39;97741.91;;;3.39;54.38
63343;BME280;49465;57.664;39.686;2023-03-05T08:30:09;97741.78;;;3.29;54.11
63343;BME280;49465;57.664;39.686;2023-03-05T08:32:47;97742.84;;;3.38;53.29
63343;BME280;49465;57.664;39.686;2023-03-05T08:35:23;97743.06;;;3.35;53.58
63343;BME280;49465;57.664;39.686;2023-03-05T08:37:52;97748.50;;;3.54;53.74
63343;BME280;49465;57.664;39.686;2023-03-05T08:40:24;97756.16;;;3.45;53.67
63343;BME280;49465;57.664;39.686;2023-03-05T08:43:05;97754.66;;;3.65;53.05
63343;BME280;49465;57.664;39.686;2023-03-05T08:45:35;97755.81;;;3.49;53.23
63343;BME280;49465;57.664;39.686;2023-03-05T08:48:04;97759.13;;;3.51;53.40
63343;BME280;49465;57.664;39.686;2023-03-05T08:50:34;97758.88;;;3.54;53.03
63343;BME280;49465;57.664;39.686;2023-03-05T08:53:04;97761.72;;;3.74;52.93
63343;BME280;49465;57.664;39.686;2023-03-05T08:55:36;97759.84;;;3.65;53.63
63343;BME280;49465;57.664;39.686;2023-03-05T08:58:08;97759.84;;;3.76;53.71
63343;BME280;49465;57.664;39.686;2023-03-05T09:00:39;97759.00;;;3.64;53.30
63343;BME280;49465;57.664;39.686;2023-03-05T09:03:06;97765.28;;;3.73;52.55
63343;BME280;49465;57.664;39.686;2023-03-05T09:05:32;97765.72;;;3.78;52.71
63343;BME280;49465;57.664;39.686;2023-03-05T09:08:04;97766.09;;;3.85;52.36
63343;BME280;49465;57.664;39.686;2023-03-05T09:10:42;97770.09;;;4.00;52.69
63343;BME280;49465;57.664;39.686;2023-03-05T09:13:09;97768.91;;;3.93;52.05
63343;BME280;49465;57.664;39.686;2023-03-05T09:15:38;97767.97;;;4.05;52.45
63343;BME280;49465;57.664;39.686;2023-03-05T09:18:07;97766.09;;;3.96;51.78
63343;BME280;49465;57.664;39.686;2023-03-05T09:20:36;97771.25;;;4.07;51.61
63343;BME280;49465;57.664;39.686;2023-03-05T09:23:10;97773.13;;;4.16;51.89
63343;BME280;49465;57.664;39.686;2023-03-05T09:25:39;97772.09;;;4.08;51.96
63343;BME280;49465;57.664;39.686;2023-03-05T09:28:11;97774.91;;;4.16;51.47
63343;BME280;49465;57.664;39.686;2023-03-05T09:30:49;97773.72;;;4.31;51.68
63343;BME280;49465;57.664;39.686;2023-03-05T09:33:18;97774.31;;;4.24;51.71
63343;BME280;49465;57.664;39.686;2023-03-05T09:35:45;97778.56;;;4.13;51.27
63343;BME280;49465;57.664;39.686;2023-03-05T09:38:13;97771.13;;;4.09;51.01
63343;BME280;49465;57.664;39.686;2023-03-05T09:41:06;97777.91;;;4.55;51.68
63343;BME280;49465;57.664;39.686;2023-03-05T09:49:23;97785.88;;;4.74;50.79
63343;BME280;49465;57.664;39.686;2023-03-05T09:52:10;97793.69;;;4.63;50.58
63343;BME280;49465;57.664;39.686;2023-03-05T09:54:41;97794.19;;;4.57;51.19
63343;BME280;49465;57.664;39.686;2023-03-05T09:57:19;97790.22;;;4.74;51.16
63343;BME280;49465;57.664;39.686;2023-03-05T09:59:51;97785.69;;;4.55;50.11
63343;BME280;49465;57.664;39.686;2023-03-05T10:02:52;97791.72;;;4.88;50.67
63343;BME280;49465;57.664;39.686;2023-03-05T10:05:49;97796.69;;;4.80;51.63
63343;BME280;49465;57.664;39.686;2023-03-05T10:08:18;97792.53;;;4.56;50.01
63343;BME280;49465;57.664;39.686;2023-03-05T10:10:51;97799.56;;;4.77;49.97
63343;BME280;49465;57.664;39.686;2023-03-05T10:13:23;97801.06;;;4.79;49.84
63343;BME280;49465;57.664;39.686;2023-03-05T10:23:46;97803.28;;;4.84;51.00
63343;BME280;49465;57.664;39.686;2023-03-05T10:26:42;97809.34;;;5.05;50.24
63343;BME280;49465;57.664;39.686;2023-03-05T10:32:27;97808.69;;;4.92;50.20
63343;BME280;49465;57.664;39.686;2023-03-05T10:40:48;97813.13;;;5.12;49.48
63343;BME280;49465;57.664;39.686;2023-03-05T10:43:36;97807.19;;;5.22;49.45
63343;BME280;49465;57.664;39.686;2023-03-05T10:46:22;97820.16;;;5.22;49.91
63343;BME280;49465;57.664;39.686;2023-03-05T10:49:21;97821.56;;;4.93;49.71
63343;BME280;49465;57.664;39.686;2023-03-05T10:52:09;97824.13;;;5.05;49.78
63343;BME280;49465;57.664;39.686;2023-03-05T10:54:43;97826.53;;;4.97;49.76
63343;BME280;49465;57.664;39.686;2023-03-05T10:57:22;97833.78;;;5.14;49.47
63343;BME280;49465;57.664;39.686;2023-03-05T11:03:01;97839.56;;;5.18;49.38
63343;BME280;49465;57.664;39.686;2023-03-05T11:05:42;97836.13;;;5.38;49.67
63343;BME280;49465;57.664;39.686;2023-03-05T11:08:38;97835.63;;;5.44;49.25
63343;BME280;49465;57.664;39.686;2023-03-05T11:11:17;97839.41;;;5.19;49.73
63343;BME280;49465;57.664;39.686;2023-03-05T11:13:58;97845.56;;;5.18;49.72
63343;BME280;49465;57.664;39.686;2023-03-05T11:16:28;97845.22;;;5.11;50.46
63343;BME280;49465;57.664;39.686;2023-03-05T11:21:43;97850.66;;;5.83;50.08
63343;BME280;49465;57.664;39.686;2023-03-05T11:24:22;97852.91;;;5.13;49.77
63343;BME280;49465;57.664;39.686;2023-03-05T11:27:00;97861.34;;;5.26;49.46
63343;BME280;49465;57.664;39.686;2023-03-05T11:29:31;97857.47;;;5.21;49.74
63343;BME280;49465;57.664;39.686;2023-03-05T11:32:27;97865.56;;;5.60;49.64
63343;BME280;49465;57.664;39.686;2023-03-05T11:34:55;97865.53;;;5.18;49.81
63343;BME280;49465;57.664;39.686;2023-03-05T11:37:31;97873.53;;;5.26;49.07
63343;BME280;49465;57.664;39.686;2023-03-05T11:42:38;97879.44;;;5.17;48.65
63343;BME280;49465;57.664;39.686;2023-03-05T11:45:08;97879.25;;;5.08;49.77
63343;BME280;49465;57.664;39.686;2023-03-05T11:47:50;97887.00;;;5.20;48.93
63343;BME280;49465;57.664;39.686;2023-03-05T11:50:30;97888.03;;;5.28;49.79
63343;BME280;49465;57.664;39.686;2023-03-05T11:53:05;97890.63;;;4.96;48.41
63343;BME280;49465;57.664;39.686;2023-03-05T11:58:38;97904.19;;;5.32;49.41
63343;BME280;49465;57.664;39.686;2023-03-05T12:01:15;97903.56;;;5.07;49.62
63343;BME280;49465;57.664;39.686;2023-03-05T12:03:54;97900.31;;;5.26;48.72
63343;BME280;49465;57.664;39.686;2023-03-05T12:06:49;97906.34;;;5.27;50.20
63343;BME280;49465;57.664;39.686;2023-03-05T12:09:50;97905.84;;;5.01;49.65
63343;BME280;49465;57.664;39.686;2023-03-05T12:23:57;97933.97;;;5.28;49.22
63343;BME280;49465;57.664;39.686;2023-03-05T12:26:53;97939.47;;;5.46;49.60
63343;BME280;49465;57.664;39.686;2023-03-05T12:32:49;97944.28;;;5.18;48.39
63343;BME280;49465;57.664;39.686;2023-03-05T12:40:31;97962.44;;;5.62;48.34
63343;BME280;49465;57.664;39.686;2023-03-05T12:43:03;97960.56;;;5.20;48.14
63343;BME280;49465;57.664;39.686;2023-03-05T12:45:38;97968.00;;;5.25;48.75
63343;BME280;49465;57.664;39.686;2023-03-05T12:53:18;97973.66;;;5.30;47.56
63343;BME280;49465;57.664;39.686;2023-03-05T12:58:41;97979.63;;;5.53;47.89
63343;BME280;49465;57.664;39.686;2023-03-05T13:03:59;97979.97;;;5.48;47.89
63343;BME280;49465;57.664;39.686;2023-03-05T13:06:35;97979.66;;;5.42;47.67
63343;BME280;49465;57.664;39.686;2023-03-05T13:09:06;97984.28;;;5.27;48.28
63343;BME280;49465;57.664;39.686;2023-03-05T13:11:35;97987.13;;;5.24;48.00
63343;BME280;49465;57.664;39.686;2023-03-05T13:16:57;97998.47;;;5.23;47.28
63343;BME280;49465;57.664;39.686;2023-03-05T13:19:26;98003.44;;;5.26;47.55
63343;BME280;49465;57.664;39.686;2023-03-05T13:22:09;98007.41;;;5.41;48.28
63343;BME280;49465;57.664;39.686;2023-03-05T13:24:38;98002.03;;;5.22;47.53
63343;BME280;49465;57.664;39.686;2023-03-05T13:27:42;98008.25;;;5.74;47.67
63343;BME280;49465;57.664;39.686;2023-03-05T13:30:35;98010.63;;;5.77;47.42
63343;BME280;49465;57.664;39.686;2023-03-05T13:33:13;98013.22;;;6.09;47.67
63343;BME280;49465;57.664;39.686;2023-03-05T13:35:49;98015.78;;;5.45;47.26
63343;BME280;49465;57.664;39.686;2023-03-05T13:38:25;98019.22;;;5.45;48.28
63343;BME280;49465;57.664;39.686;2023-03-05T13:43:58;98018.28;;;5.35;48.05
63343;BME280;49465;57.664;39.686;2023-03-05T13:46:34;98023.03;;;5.73;48.39
63343;BME280;49465;57.664;39.686;2023-03-05T13:49:24;98027.13;;;5.55;47.92
63343;BME280;49465;57.664;39.686;2023-03-05T13:51:56;98029.53;;;5.13;48.06
63343;BME280;49465;57.664;39.686;2023-03-05T13:54:32;98036.63;;;5.22;48.25
63343;BME280;49465;57.664;39.686;2023-03-05T13:57:04;98035.09;;;4.97;48.86
63343;BME280;49465;57.664;39.686;2023-03-05T13:59:35;98038.41;;;5.10;48.49
63343;BME280;49465;57.664;39.686;2023-03-05T14:02:29;98042.13;;;5.40;48.61
63343;BME280;49465;57.664;39.686;2023-03-05T14:04:58;98045.00;;;5.03;48.13
63343;BME280;49465;57.664;39.686;2023-03-05T14:07:36;98050.44;;;5.23;48.10
63343;BME280;49465;57.664;39.686;2023-03-05T14:10:35;98056.19;;;5.49;48.46
63343;BME280;49465;57.664;39.686;2023-03-05T14:13:21;98055.19;;;5.18;49.16
63343;BME280;49465;57.664;39.686;2023-03-05T14:16:12;98061.31;;;5.17;49.46
63343;BME280;49465;57.664;39.686;2023-03-05T14:19:02;98070.72;;;5.29;49.15
63343;BME280;49465;57.664;39.686;2023-03-05T14:21:50;98069.81;;;5.30;48.79
63343;BME280;49465;57.664;39.686;2023-03-05T14:24:20;98075.16;;;5.72;47.65
63343;BME280;49465;57.664;39.686;2023-03-05T14:27:02;98070.06;;;5.04;48.57
63343;BME280;49465;57.664;39.686;2023-03-05T14:29:37;98075.72;;;4.98;48.71
63343;BME280;49465;57.664;39.686;2023-03-05T14:32:32;98079.97;;;5.10;49.26
63343;BME280;49465;57.664;39.686;2023-03-05T14:35:20;98087.28;;;5.17;49.00
63343;BME280;49465;57.664;39.686;2023-03-05T14:37:58;98094.69;;;4.76;49.36
63343;BME280;49465;57.664;39.686;2023-03-05T14:40:37;98091.53;;;4.95;48.41
63343;BME280;49465;57.664;39.686;2023-03-05T14:43:12;98095.25;;;4.68;48.91
63343;BME280;49465;57.664;39.686;2023-03-05T14:45:43;98101.03;;;4.61;48.90